Time;durP1;ratioP1;P1;durP2;ratioP2;P2;SDS_P1;SDS_P2;PMS_P1;PMS_P2;Temp;Humidity;BMP_temperature;BMP_pressure;BME280_temperature;BME280_humidity;BME280_pressure;Samples;Min_cycle;Max_cycle;Signal;HPM_P1;HPM_P2
2022/02/15 00:01:23;;;;;;;6.30;2.85;;;;;;;6.27;100.00;99912.34;5006556;28;20033;-91
2022/02/15 00:03:49;;;;;;;4.43;1.50;;;;;;;6.31;100.00;99897.63;4966708;28;20037;-88
2022/02/15 00:06:14;;;;;;;4.68;1.95;;;;;;;6.41;100.00;99891.28;4987643;28;20026;-92
2022/02/15 00:08:40;;;;;;;5.22;2.33;;;;;;;6.43;100.00;99868.75;4991264;28;20075;-93
2022/02/15 00:11:05;;;;;;;3.55;2.28;;;;;;;6.35;100.00;99839.38;4970491;28;20041;-91
2022/02/15 00:13:31;;;;;;;6.32;1.67;;;;;;;6.61;100.00;99865.84;4991727;28;20022;-91
2022/02/15 00:15:57;;;;;;;6.70;3.03;;;;;;;6.65;100.00;99877.88;4959297;28;20022;-89
2022/02/15 00:18:22;;;;;;;2.35;1.15;;;;;;;6.66;100.00;99873.34;4975156;28;20034;-89
2022/02/15 00:20:48;;;;;;;1.20;1.08;;;;;;;6.58;100.00;99851.00;4954159;28;20503;-89
2022/02/15 00:23:14;;;;;;;0.82;0.75;;;;;;;6.67;100.00;99864.31;4978564;28;20049;-89
2022/02/15 00:25:39;;;;;;;0.85;0.85;;;;;;;6.59;100.00;99841.16;4951725;28;20152;-89
2022/02/15 00:28:05;;;;;;;0.73;0.70;;;;;;;6.64;100.00;99853.97;5006787;28;20117;-87
2022/02/15 00:30:31;;;;;;;6.88;2.60;;;;;;;6.63;100.00;99847.81;4952123;28;20041;-89
2022/02/15 00:32:57;;;;;;;0.70;0.70;;;;;;;6.45;100.00;99821.31;4987739;28;20029;-88
2022/02/15 00:35:22;;;;;;;1.20;0.93;;;;;;;6.59;100.00;99839.31;4974991;28;20033;-88
2022/02/15 00:37:48;;;;;;;1.48;0.85;;;;;;;6.56;100.00;99820.97;4960392;28;20045;-86
2022/02/15 00:40:14;;;;;;;1.85;1.08;;;;;;;6.34;100.00;99792.34;4973258;28;20037;-85
2022/02/15 00:42:40;;;;;;;1.48;0.63;;;;;;;6.47;100.00;99800.63;4996459;28;20456;-89
2022/02/15 00:45:07;;;;;;;0.75;0.55;;;;;;;6.34;100.00;99773.66;4988966;28;20030;-86
2022/02/15 00:47:33;;;;;;;5.05;1.27;;;;;;;6.42;100.00;99781.63;4974681;28;20135;-89
2022/02/15 00:49:59;;;;;;;2.50;1.17;;;;;;;6.35;100.00;99764.63;4966728;28;20479;-88
2022/02/15 00:52:26;;;;;;;1.25;0.80;;;;;;;6.58;100.00;99794.06;4974066;28;20085;-88
2022/02/15 00:54:54;;;;;;;0.88;0.80;;;;;;;6.63;100.00;99783.69;4987186;28;20038;-90
2022/02/15 00:57:21;;;;;;;2.78;0.98;;;;;;;6.62;100.00;99776.72;4955832;28;20045;-87
2022/02/15 00:59:47;;;;;;;6.85;1.35;;;;;;;6.57;100.00;99757.69;4974565;28;20048;-86
2022/02/15 01:02:12;;;;;;;2.80;1.48;;;;;;;6.66;100.00;99748.63;4969099;28;20030;-86
2022/02/15 01:04:46;;;;;;;5.18;1.30;;;;;;;6.70;100.00;99773.16;4980929;28;21919;-86
2022/02/15 01:07:12;;;;;;;5.40;1.27;;;;;;;6.64;100.00;99749.81;4967957;28;20038;-87
2022/02/15 01:09:41;;;;;;;2.67;1.02;;;;;;;6.74;100.00;99755.75;4975572;28;20061;-87
2022/02/15 01:12:10;;;;;;;0.85;0.80;;;;;;;6.79;100.00;99758.75;4982696;28;20539;-86
2022/02/15 01:14:37;;;;;;;0.95;0.95;;;;;;;6.77;100.00;99764.28;4985226;28;20022;-88
2022/02/15 01:17:02;;;;;;;9.00;1.52;;;;;;;6.81;100.00;99764.75;4986255;28;20026;-87
2022/02/15 01:19:29;;;;;;;6.75;1.00;;;;;;;6.86;100.00;99753.53;4956592;28;20092;-87
2022/02/15 01:21:54;;;;;;;3.72;1.35;;;;;;;6.85;100.00;99743.84;4969325;28;20033;-86
2022/02/15 01:24:20;;;;;;;1.10;0.93;;;;;;;6.88;100.00;99749.69;4981738;28;20036;-88
2022/02/15 01:26:46;;;;;;;2.05;1.10;;;;;;;6.89;100.00;99732.63;4970218;28;20038;-86
2022/02/15 01:29:11;;;;;;;2.75;2.55;;;;;;;6.78;100.00;99720.50;4987031;28;20342;-87
2022/02/15 01:31:37;;;;;;;1.92;0.82;;;;;;;6.73;100.00;99709.53;4965727;28;20553;-87
2022/02/15 01:34:05;;;;;;;7.93;1.42;;;;;;;6.91;100.00;99722.59;4949985;28;20100;-86
2022/02/15 01:36:30;;;;;;;5.57;0.95;;;;;;;7.01;100.00;99717.88;4985398;28;20070;-84
2022/02/15 01:38:56;;;;;;;3.08;0.98;;;;;;;6.97;100.00;99703.19;4962535;28;20025;-85
2022/02/15 01:41:22;;;;;;;3.25;1.40;;;;;;;7.13;100.00;99704.06;4985896;28;20037;-86
2022/02/15 01:43:48;;;;;;;0.60;0.60;;;;;;;7.19;100.00;99689.97;4987150;28;20204;-87
2022/02/15 01:46:15;;;;;;;2.33;0.90;;;;;;;7.19;100.00;99681.94;4989364;28;20029;-87
2022/02/15 01:48:46;;;;;;;1.20;0.88;;;;;;;7.11;100.00;99657.97;4976992;28;20508;-87
2022/02/15 01:51:14;;;;;;;4.28;1.55;;;;;;;7.24;100.00;99674.22;4967836;28;20250;-88
2022/02/15 01:53:39;;;;;;;1.48;1.08;;;;;;;7.25;100.00;99643.78;4988718;28;20045;-87
2022/02/15 01:56:08;;;;;;;5.53;1.45;;;;;;;7.18;100.00;99634.84;4969527;28;20460;-87
2022/02/15 01:58:36;;;;;;;0.68;0.65;;;;;;;7.31;100.00;99667.16;4955317;28;20136;-88
2022/02/15 02:01:02;;;;;;;3.70;0.90;;;;;;;7.36;100.00;99654.06;4952716;28;20246;-87
2022/02/15 02:03:28;;;;;;;1.55;0.98;;;;;;;7.24;100.00;99628.78;4987437;28;20042;-86
2022/02/15 02:05:55;;;;;;;13.10;1.70;;;;;;;7.32;100.00;99627.88;4981777;28;21046;-87
2022/02/15 02:08:33;;;;;;;3.80;1.08;;;;;;;7.45;100.00;99636.91;4960300;28;20136;-88
2022/02/15 02:11:00;;;;;;;2.08;0.75;;;;;;;7.44;100.00;99621.06;4981733;28;20036;-87
2022/02/15 02:13:26;;;;;;;3.88;1.60;;;;;;;7.44;100.00;99608.53;4989685;28;21026;-87
2022/02/15 02:15:52;;;;;;;2.60;1.02;;;;;;;7.41;100.00;99608.88;4987429;28;20037;-88
2022/02/15 02:18:24;;;;;;;1.13;0.73;;;;;;;7.32;100.00;99569.88;4972673;28;20451;-87
2022/02/15 02:20:49;;;;;;;0.40;0.40;;;;;;;7.44;100.00;99571.06;4961976;28;20038;-87
2022/02/15 02:23:17;;;;;;;3.25;1.23;;;;;;;7.52;100.00;99575.50;4973870;28;20041;-86
2022/02/15 02:25:43;;;;;;;7.38;1.73;;;;;;;7.52;100.00;99574.69;4953539;28;20029;-86
2022/02/15 02:28:09;;;;;;;1.23;1.13;;;;;;;7.41;100.00;99557.22;4991942;28;20109;-86
2022/02/15 02:30:35;;;;;;;2.63;0.68;;;;;;;7.32;100.00;99531.59;4986235;28;20092;-86
2022/02/15 02:33:01;;;;;;;2.33;1.00;;;;;;;7.41;100.00;99562.56;4956161;28;20061;-86
2022/02/15 02:35:27;;;;;;;0.60;0.60;;;;;;;7.45;100.00;99562.03;4986312;28;20477;-86
2022/02/15 02:37:53;;;;;;;0.65;0.50;;;;;;;7.43;100.00;99548.00;4968348;28;20038;-89
2022/02/15 02:40:21;;;;;;;0.57;0.57;;;;;;;7.44;100.00;99541.66;4971586;28;20034;-86
2022/02/15 02:42:47;;;;;;;1.75;0.80;;;;;;;7.48;100.00;99553.63;4974681;28;20037;-87
2022/02/15 02:45:16;;;;;;;3.92;1.35;;;;;;;7.46;100.00;99538.78;4977273;28;20037;-85
2022/02/15 02:47:43;;;;;;;1.98;0.80;;;;;;;7.53;100.00;99531.69;4988159;28;20037;-88
2022/02/15 02:50:09;;;;;;;1.33;0.70;;;;;;;7.56;100.00;99535.81;4974201;28;20081;-87
2022/02/15 02:52:35;;;;;;;0.50;0.50;;;;;;;7.52;100.00;99518.50;4981455;28;20128;-86
2022/02/15 02:55:01;;;;;;;1.20;1.10;;;;;;;7.61;100.00;99536.94;4966392;28;20038;-87
2022/02/15 02:57:26;;;;;;;0.50;0.50;;;;;;;7.59;100.00;99546.97;4949334;28;20037;-87
2022/02/15 02:59:52;;;;;;;0.95;0.70;;;;;;;7.61;100.00;99530.75;4968862;28;20029;-89
2022/02/15 03:02:18;;;;;;;0.82;0.77;;;;;;;7.56;100.00;99527.81;4971547;28;20487;-86
2022/02/15 03:04:43;;;;;;;0.60;0.60;;;;;;;7.61;100.00;99538.78;4971459;28;20476;-86
2022/02/15 03:07:10;;;;;;;7.60;1.23;;;;;;;7.61;100.00;99502.16;4971219;28;20124;-87
2022/02/15 03:09:36;;;;;;;0.50;0.50;;;;;;;7.66;100.00;99505.09;4973545;28;20132;-86
2022/02/15 03:12:03;;;;;;;0.80;0.60;;;;;;;7.58;100.00;99486.47;4972959;28;20567;-86
2022/02/15 03:14:29;;;;;;;3.53;0.80;;;;;;;7.68;100.00;99508.41;4985479;28;20117;-86
2022/02/15 03:16:54;;;;;;;0.40;0.40;;;;;;;7.60;100.00;99507.72;4970164;28;20140;-86
2022/02/15 03:19:20;;;;;;;7.63;1.35;;;;;;;7.64;100.00;99522.34;4989902;28;20395;-86
2022/02/15 03:21:46;;;;;;;0.60;0.60;;;;;;;7.61;100.00;99533.44;4971329;28;20033;-86
2022/02/15 03:24:11;;;;;;;0.88;0.88;;;;;;;7.67;100.00;99540.69;4984683;28;20092;-88
2022/02/15 03:26:37;;;;;;;0.50;0.50;;;;;;;7.65;100.00;99532.88;4990611;28;20447;-86
2022/02/15 03:29:04;;;;;;;0.63;0.63;;;;;;;7.66;100.00;99531.03;4970778;28;20144;-86
2022/02/15 03:31:30;;;;;;;1.58;0.85;;;;;;;7.69;100.00;99519.94;4972045;28;20140;-89
2022/02/15 03:33:56;;;;;;;0.50;0.50;;;;;;;7.84;100.00;99552.84;4982915;28;20109;-87
2022/02/15 03:36:21;;;;;;;0.50;0.50;;;;;;;7.84;100.00;99552.03;4985802;28;20042;-85
2022/02/15 03:38:47;;;;;;;0.45;0.45;;;;;;;7.78;100.00;99540.25;4969203;28;20030;-86
2022/02/15 03:43:57;;;;;;;0.40;0.40;;;;;;;7.75;100.00;99562.00;4992302;28;20029;-87
2022/02/15 03:46:23;;;;;;;0.50;0.50;;;;;;;7.74;100.00;99563.03;4991053;28;20491;-88
2022/02/15 03:48:52;;;;;;;0.40;0.40;;;;;;;7.64;100.00;99543.75;4984659;28;20034;-87
2022/02/15 03:51:18;;;;;;;0.47;0.47;;;;;;;7.60;100.00;99523.75;4987914;28;20049;-87
2022/02/15 03:53:43;;;;;;;0.45;0.45;;;;;;;7.68;100.00;99555.75;4961826;28;20392;-86
2022/02/15 03:56:10;;;;;;;0.45;0.45;;;;;;;7.57;100.00;99543.69;4956106;28;20138;-86
2022/02/15 03:58:46;;;;;;;0.50;0.50;;;;;;;7.69;100.00;99560.06;4989420;28;20451;-86
2022/02/15 04:01:25;;;;;;;0.40;0.40;;;;;;;7.79;100.00;99559.78;4957331;28;20041;-87
2022/02/15 04:03:51;;;;;;;0.40;0.40;;;;;;;7.56;100.00;99531.31;4970109;28;20423;-88
2022/02/15 04:06:24;;;;;;;0.50;0.50;;;;;;;7.90;100.00;99583.41;4986791;28;20050;-87
2022/02/15 04:08:50;;;;;;;9.43;2.70;;;;;;;7.89;100.00;99587.09;4977936;28;20046;-87
2022/02/15 04:11:16;;;;;;;0.40;0.40;;;;;;;7.83;100.00;99583.31;4955121;28;20045;-87
2022/02/15 04:13:44;;;;;;;7.15;1.20;;;;;;;7.87;100.00;99597.97;4976493;28;20034;-88
2022/02/15 04:16:10;;;;;;;2.35;0.88;;;;;;;7.86;100.00;99607.03;4976205;28;20045;-87
2022/02/15 04:18:43;;;;;;;1.23;0.70;;;;;;;7.81;100.00;99601.41;4977775;28;20460;-88
2022/02/15 04:21:12;;;;;;;0.68;0.68;;;;;;;7.71;100.00;99607.03;4993711;28;20049;-87
2022/02/15 04:23:38;;;;;;;3.13;2.67;;;;;;;7.66;100.00;99603.25;4971388;28;20048;-87
2022/02/15 04:26:03;;;;;;;0.50;0.50;;;;;;;7.53;100.00;99619.13;4990918;28;20026;-88
2022/02/15 04:28:29;;;;;;;11.10;1.80;;;;;;;7.42;100.00;99621.25;4960790;28;20047;-85
2022/02/15 04:30:54;;;;;;;0.50;0.50;;;;;;;7.38;100.00;99621.78;5005776;28;20470;-91
2022/02/15 04:33:20;;;;;;;0.50;0.50;;;;;;;7.21;100.00;99599.72;4969702;28;20111;-91
2022/02/15 04:35:46;;;;;;;2.13;0.85;;;;;;;7.11;100.00;99601.84;4991712;28;20370;-88
2022/02/15 04:38:11;;;;;;;4.90;0.93;;;;;;;7.08;100.00;99623.59;4975175;28;20026;-90
2022/02/15 04:40:38;;;;;;;1.48;0.55;;;;;;;7.13;100.00;99626.53;4979996;28;20452;-88
2022/02/15 04:43:09;;;;;;;27.17;3.70;;;;;;;7.08;100.00;99623.59;4976085;28;20069;-87
2022/02/15 04:45:37;;;;;;;0.90;0.80;;;;;;;7.08;100.00;99636.94;4984633;28;20442;-88
2022/02/15 04:48:03;;;;;;;0.40;0.40;;;;;;;6.97;100.00;99628.34;4975966;28;20463;-88
2022/02/15 04:50:29;;;;;;;1.40;1.30;;;;;;;6.94;100.00;99650.09;4991434;28;20067;-88
2022/02/15 04:52:55;;;;;;;0.63;0.50;;;;;;;6.90;100.00;99630.06;4959599;28;20073;-91
2022/02/15 04:55:20;;;;;;;0.63;0.63;;;;;;;6.84;100.00;99622.78;4990928;28;20037;-87
2022/02/15 04:57:46;;;;;;;0.40;0.40;;;;;;;6.82;100.00;99640.81;4980364;28;20036;-87
2022/02/15 05:00:12;;;;;;;0.50;0.50;;;;;;;6.74;100.00;99612.31;4973440;28;20034;-87
2022/02/15 05:02:38;;;;;;;0.50;0.50;;;;;;;6.67;100.00;99615.88;4988303;28;20040;-87
2022/02/15 05:05:07;;;;;;;0.40;0.40;;;;;;;6.60;100.00;99619.28;4990720;28;20028;-87
2022/02/15 05:07:35;;;;;;;0.50;0.50;;;;;;;6.54;100.00;99613.84;4973645;28;20120;-88
2022/02/15 05:10:04;;;;;;;2.08;0.73;;;;;;;6.42;100.00;99600.03;4976900;28;20030;-89
2022/02/15 05:12:32;;;;;;;0.50;0.50;;;;;;;6.46;100.00;99605.88;4957763;28;20093;-88
2022/02/15 05:14:58;;;;;;;0.40;0.40;;;;;;;6.48;100.00;99620.69;4976487;28;20033;-89
2022/02/15 05:17:24;;;;;;;0.40;0.40;;;;;;;6.47;100.00;99616.38;4992798;28;20360;-87
2022/02/15 05:19:52;;;;;;;0.40;0.40;;;;;;;6.46;100.00;99617.38;4988007;28;20026;-88
2022/02/15 05:22:18;;;;;;;0.40;0.40;;;;;;;6.34;100.00;99611.59;4987411;28;20108;-89
2022/02/15 05:24:44;;;;;;;0.40;0.40;;;;;;;6.49;100.00;99632.22;4973316;28;20109;-89
2022/02/15 05:27:09;;;;;;;0.40;0.40;;;;;;;6.50;100.00;99639.22;4973045;28;20697;-87
2022/02/15 05:29:35;;;;;;;0.80;0.80;;;;;;;6.43;100.00;99639.13;4972494;28;20034;-86
2022/02/15 05:32:01;;;;;;;0.45;0.45;;;;;;;6.39;100.00;99638.63;4988338;28;20026;-88
2022/02/15 05:34:27;;;;;;;0.40;0.40;;;;;;;6.44;100.00;99653.28;4958824;28;20045;-88
2022/02/15 05:36:54;;;;;;;0.50;0.50;;;;;;;6.26;100.00;99617.00;4958113;28;20422;-90
2022/02/15 05:39:20;;;;;;;0.40;0.40;;;;;;;6.27;100.00;99623.16;4990134;28;20037;-89
2022/02/15 05:41:46;;;;;;;0.50;0.50;;;;;;;6.16;100.00;99616.38;4988410;28;20073;-88
2022/02/15 05:44:11;;;;;;;0.40;0.40;;;;;;;6.15;100.00;99642.25;4961105;28;20357;-88
2022/02/15 05:46:39;;;;;;;0.40;0.40;;;;;;;6.23;100.00;99652.06;4974333;28;20050;-88
2022/02/15 05:49:05;;;;;;;0.40;0.40;;;;;;;6.16;100.00;99637.75;4983161;28;20034;-90
2022/02/15 05:51:30;;;;;;;0.47;0.47;;;;;;;6.19;100.00;99648.06;4953965;28;20033;-85
2022/02/15 05:53:56;;;;;;;0.55;0.55;;;;;;;6.16;100.00;99640.41;4973484;28;20190;-89
2022/02/15 05:56:22;;;;;;;0.40;0.40;;;;;;;6.12;100.00;99631.09;4973271;28;20034;-86
2022/02/15 05:58:47;;;;;;;0.47;0.47;;;;;;;6.06;100.00;99643.31;4987450;28;20034;-88
2022/02/15 06:01:13;;;;;;;0.40;0.40;;;;;;;6.07;100.00;99644.13;4969943;28;20038;-88
2022/02/15 06:06:23;;;;;;;0.40;0.40;;;;;;;6.03;100.00;99632.97;4988995;28;20034;-87
2022/02/15 06:08:49;;;;;;;0.40;0.40;;;;;;;5.97;100.00;99628.31;4991377;28;20499;-88
2022/02/15 06:11:18;;;;;;;0.40;0.40;;;;;;;6.00;100.00;99632.50;4963899;28;20042;-85
2022/02/15 06:13:43;;;;;;;0.50;0.50;;;;;;;5.96;100.00;99652.53;4993325;28;20068;-88
2022/02/15 06:16:09;;;;;;;0.50;0.50;;;;;;;5.86;100.00;99642.03;4974880;28;20461;-87
2022/02/15 06:18:34;;;;;;;0.50;0.50;;;;;;;5.86;100.00;99629.50;4991427;28;20053;-88
2022/02/15 06:21:02;;;;;;;0.40;0.40;;;;;;;5.87;100.00;99646.34;4970400;28;20415;-87
2022/02/15 06:23:28;;;;;;;0.40;0.40;;;;;;;5.58;100.00;99604.28;4978458;28;20038;-87
2022/02/15 06:25:54;;;;;;;0.40;0.40;;;;;;;5.70;100.00;99622.41;4973927;28;20048;-89
2022/02/15 06:28:19;;;;;;;0.50;0.50;;;;;;;5.65;100.00;99603.41;4989373;28;20036;-86
2022/02/15 06:30:50;;;;;;;0.50;0.50;;;;;;;5.71;100.00;99624.06;4988858;28;20040;-88
2022/02/15 06:33:16;;;;;;;0.50;0.50;;;;;;;5.73;100.00;99632.72;4969762;28;20030;-89
2022/02/15 06:35:42;;;;;;;0.50;0.50;;;;;;;5.64;100.00;99644.44;4986704;28;20038;-87
2022/02/15 06:38:07;;;;;;;0.85;0.85;;;;;;;5.57;100.00;99627.44;4974048;28;20041;-87
2022/02/15 06:40:35;;;;;;;0.50;0.50;;;;;;;5.55;100.00;99634.78;4990711;28;20041;-90
2022/02/15 06:43:05;;;;;;;0.50;0.50;;;;;;;5.47;100.00;99653.47;4959039;28;20237;-88
2022/02/15 06:45:31;;;;;;;0.40;0.40;;;;;;;5.40;100.00;99639.13;4970629;28;20030;-91
2022/02/15 06:47:58;;;;;;;4.90;1.77;;;;;;;5.41;100.00;99628.31;4980543;28;20133;-89
2022/02/15 06:50:23;;;;;;;1.45;1.35;;;;;;;5.46;100.00;99627.81;4967267;28;20096;-88
2022/02/15 06:52:49;;;;;;;0.50;0.50;;;;;;;5.59;100.00;99641.44;4982991;28;20428;-89
2022/02/15 06:55:21;;;;;;;0.55;0.55;;;;;;;5.65;100.00;99631.94;4982620;28;20373;-91
2022/02/15 06:57:46;;;;;;;0.50;0.50;;;;;;;5.77;100.00;99643.03;4985084;28;20496;-86
2022/02/15 07:00:12;;;;;;;1.63;1.45;;;;;;;5.88;100.00;99662.19;4980873;28;20037;-89
2022/02/15 07:02:38;;;;;;;0.50;0.50;;;;;;;5.89;100.00;99652.34;4979766;28;20097;-91
2022/02/15 07:05:04;;;;;;;4.53;1.25;;;;;;;5.89;100.00;99652.34;4982776;28;20507;-88
2022/02/15 07:07:33;;;;;;;0.80;0.73;;;;;;;6.03;100.00;99673.00;4982953;28;20034;-91
2022/02/15 07:09:58;;;;;;;6.78;1.67;;;;;;;6.05;100.00;99687.00;4965351;28;20053;-86
2022/02/15 07:12:24;;;;;;;2.42;1.23;;;;;;;5.95;100.00;99662.34;4977784;28;20041;-87
2022/02/15 07:14:49;;;;;;;0.50;0.50;;;;;;;5.95;100.00;99667.69;4966734;28;20484;-90
2022/02/15 07:17:15;;;;;;;0.75;0.75;;;;;;;5.92;100.00;99670.66;5001065;28;20037;-88
2022/02/15 07:19:41;;;;;;;3.60;1.48;;;;;;;5.85;100.00;99673.22;4999357;28;20042;-90
2022/02/15 07:22:07;;;;;;;1.98;0.82;;;;;;;5.83;100.00;99669.88;4974756;28;20030;-88
2022/02/15 07:24:33;;;;;;;0.70;0.63;;;;;;;5.84;100.00;99676.03;4970330;28;20157;-88
2022/02/15 07:26:59;;;;;;;1.38;1.05;;;;;;;5.63;100.00;99656.09;4992610;28;20033;-89
2022/02/15 07:29:24;;;;;;;3.28;1.70;;;;;;;5.76;100.00;99692.91;4995666;28;20041;-91
2022/02/15 07:31:50;;;;;;;2.40;1.45;;;;;;;5.68;100.00;99675.06;4973373;28;20520;-88
2022/02/15 07:34:16;;;;;;;10.63;1.60;;;;;;;5.72;100.00;99689.75;4975592;28;20037;-88
2022/02/15 07:36:43;;;;;;;4.80;1.13;;;;;;;5.78;100.00;99695.41;4989389;28;20086;-89
2022/02/15 07:39:10;;;;;;;4.82;0.90;;;;;;;5.78;100.00;99687.41;4973612;28;20037;-90
2022/02/15 07:41:35;;;;;;;4.68;1.17;;;;;;;5.73;100.00;99680.72;4986307;28;20069;-90
2022/02/15 07:44:01;;;;;;;10.27;1.98;;;;;;;5.76;100.00;99687.56;4993330;28;20482;-89
2022/02/15 07:46:26;;;;;;;16.95;1.73;;;;;;;5.57;100.00;99658.63;4972545;28;20066;-87
2022/02/15 07:48:52;;;;;;;3.08;1.85;;;;;;;5.57;100.00;99661.28;4990238;28;20033;-90
2022/02/15 07:51:18;;;;;;;3.50;1.00;;;;;;;5.54;100.00;99673.13;4990120;28;20487;-88
2022/02/15 07:53:44;;;;;;;5.03;2.10;;;;;;;5.55;100.00;99689.94;4977034;28;20396;-89
2022/02/15 07:56:10;;;;;;;4.38;1.63;;;;;;;5.32;100.00;99660.47;4977326;28;20041;-89
2022/02/15 07:58:36;;;;;;;9.05;1.73;;;;;;;5.46;100.00;99679.28;4975136;28;20128;-90
2022/02/15 08:01:02;;;;;;;4.60;1.83;;;;;;;5.41;100.00;99670.97;4993083;28;20124;-90
2022/02/15 08:03:28;;;;;;;10.00;2.55;;;;;;;5.33;100.00;99676.31;4989154;28;20399;-88
2022/02/15 08:05:53;;;;;;;12.68;1.75;;;;;;;5.19;100.00;99671.69;4960969;28;20108;-89
2022/02/15 08:08:22;;;;;;;12.05;2.92;;;;;;;5.18;100.00;99683.31;4987169;28;20037;-86
2022/02/15 08:10:48;;;;;;;13.98;2.97;;;;;;;5.14;100.00;99682.00;4974153;28;20062;-86
2022/02/15 08:13:21;;;;;;;14.25;2.35;;;;;;;5.11;100.00;99680.50;4984678;28;20022;-88
2022/02/15 08:15:51;;;;;;;14.13;2.47;;;;;;;5.09;100.00;99690.50;4969596;28;20049;-88
2022/02/15 08:18:17;;;;;;;7.22;1.98;;;;;;;5.14;100.00;99690.00;4967557;28;20073;-88
2022/02/15 08:20:43;;;;;;;13.85;2.53;;;;;;;4.94;100.00;99671.66;4977056;28;20092;-90
2022/02/15 08:23:12;;;;;;;12.45;3.22;;;;;;;5.02;100.00;99684.16;4974353;28;20049;-89
2022/02/15 08:25:38;;;;;;;11.82;2.47;;;;;;;5.03;100.00;99693.84;4989979;28;20033;-87
2022/02/15 08:28:04;;;;;;;19.75;2.88;;;;;;;5.11;100.00;99711.63;4969435;28;20105;-88
2022/02/15 08:30:29;;;;;;;9.48;2.10;;;;;;;5.17;100.00;99710.97;4979362;28;20040;-88
2022/02/15 08:32:55;;;;;;;25.60;4.18;;;;;;;5.18;100.00;99712.63;4977460;28;20053;-87
2022/02/15 08:35:21;;;;;;;12.65;3.17;;;;;;;5.24;100.00;99727.97;4974470;28;20365;-88
2022/02/15 08:37:47;;;;;;;23.27;3.00;;;;;;;5.31;100.00;99718.28;4991528;28;20033;-91
2022/02/15 08:40:13;;;;;;;13.43;2.78;;;;;;;5.26;100.00;99697.47;4968829;28;20030;-90
2022/02/15 08:42:41;;;;;;;16.50;2.42;;;;;;;5.26;100.00;99705.47;4969298;28;20473;-91
2022/02/15 08:45:07;;;;;;;16.25;3.08;;;;;;;5.47;100.00;99733.44;4992006;28;20026;-91
2022/02/15 08:47:34;;;;;;;20.13;3.13;;;;;;;5.48;100.00;99721.81;4987224;28;20038;-88
2022/02/15 08:49:59;;;;;;;18.85;3.85;;;;;;;5.56;100.00;99721.78;4975175;28;20113;-89
2022/02/15 08:52:26;;;;;;;13.95;2.50;;;;;;;5.57;100.00;99723.44;4974759;28;20121;-86
2022/02/15 08:54:54;;;;;;;12.82;3.35;;;;;;;5.76;100.00;99734.75;4991183;28;20080;-88
2022/02/15 08:57:21;;;;;;;18.52;3.97;;;;;;;5.79;100.00;99731.72;4976981;28;20488;-86
2022/02/15 08:59:47;;;;;;;27.42;3.95;;;;;;;5.88;100.00;99739.56;4976955;28;20403;-90
2022/02/15 09:02:12;;;;;;;22.08;3.40;;;;;;;5.89;100.00;99732.38;4974865;28;20495;-90
2022/02/15 09:04:38;;;;;;;33.95;5.15;;;;;;;5.72;100.00;99697.75;4977887;28;20046;-89
2022/02/15 09:07:06;;;;;;;19.17;3.97;;;;;;;5.92;100.00;99732.03;4961044;28;20145;-87
2022/02/15 09:09:32;;;;;;;13.40;2.40;;;;;;;5.96;100.00;99728.06;4968582;28;20121;-88
2022/02/15 09:11:58;;;;;;;33.33;4.20;;;;;;;6.06;100.00;99730.53;4961115;28;20056;-91
2022/02/15 09:14:24;;;;;;;17.58;4.25;;;;;;;6.20;100.00;99727.16;4977057;28;20030;-92
2022/02/15 09:16:52;;;;;;;21.58;4.35;;;;;;;6.34;100.00;99730.94;4972288;28;20112;-88
2022/02/15 09:19:20;;;;;;;22.65;5.78;;;;;;;6.31;100.00;99693.91;4957672;28;20092;-91
2022/02/15 09:21:50;;;;;;;29.95;5.10;;;;;;;6.42;100.00;99692.69;4976906;28;20045;-91
2022/02/15 09:24:16;;;;;;;34.97;5.78;;;;;;;6.63;100.00;99722.28;4993018;28;20053;-92
2022/02/15 09:26:42;;;;;;;30.40;5.55;;;;;;;6.71;100.00;99732.06;4974381;28;20113;-88
2022/02/15 09:29:09;;;;;;;17.63;3.28;;;;;;;6.80;100.00;99725.66;4974800;28;20022;-88
2022/02/15 09:31:37;;;;;;;23.70;5.88;;;;;;;6.81;100.00;99727.34;4975801;28;20065;-92
2022/02/15 09:34:04;;;;;;;22.05;3.45;;;;;;;6.78;100.00;99711.69;4971942;28;20096;-88
2022/02/15 09:36:30;;;;;;;16.88;5.38;;;;;;;6.87;100.00;99726.63;4957397;28;20043;-83
2022/02/15 09:38:58;;;;;;;25.27;3.70;;;;;;;6.93;100.00;99725.09;4996329;28;20030;-83
2022/02/15 09:41:24;;;;;;;27.98;4.35;;;;;;;6.99;100.00;99724.41;4979008;28;20034;-84
2022/02/15 09:43:50;;;;;;;13.90;3.63;;;;;;;6.97;100.00;99715.72;4979856;28;20042;-83
2022/02/15 09:46:18;;;;;;;13.07;4.45;;;;;;;6.96;100.00;99712.22;4982899;28;20120;-85
2022/02/15 09:48:45;;;;;;;26.02;3.65;;;;;;;6.96;100.00;99709.53;4983619;28;20114;-85
2022/02/15 09:51:12;;;;;;;18.67;3.75;;;;;;;6.70;100.00;99661.78;4982956;28;20029;-84
2022/02/15 09:53:38;;;;;;;25.15;4.22;;;;;;;6.91;100.00;99695.06;4953950;28;20074;-84
2022/02/15 09:56:07;;;;;;;27.20;4.65;;;;;;;7.01;100.00;99704.50;4995227;28;20029;-84
2022/02/15 09:58:34;;;;;;;23.45;3.45;;;;;;;7.08;100.00;99706.44;4971117;28;20133;-85
2022/02/15 10:01:01;;;;;;;24.08;3.42;;;;;;;7.08;100.00;99690.41;4983692;28;20103;-84
2022/02/15 10:03:27;;;;;;;21.92;3.28;;;;;;;7.14;100.00;99687.00;4987164;28;20113;-84
2022/02/15 10:05:52;;;;;;;16.35;3.50;;;;;;;7.27;100.00;99693.41;5001198;28;20506;-83
2022/02/15 10:08:29;;;;;;;19.48;3.30;;;;;;;7.29;100.00;99690.56;5006613;28;20067;-84
2022/02/15 10:10:55;;;;;;;21.30;3.83;;;;;;;7.48;100.00;99702.59;4969775;28;20041;-85
2022/02/15 10:13:21;;;;;;;33.83;7.72;;;;;;;7.51;100.00;99702.22;4978542;28;20046;-84
2022/02/15 10:15:49;;;;;;;33.08;6.30;;;;;;;7.49;100.00;99697.06;4986975;28;20030;-83
2022/02/15 10:18:27;;;;;;;26.17;5.57;;;;;;;7.67;100.00;99711.94;5009634;28;20361;-84
2022/02/15 10:20:55;;;;;;;24.38;4.53;;;;;;;7.66;100.00;99687.03;4980072;28;20037;-84
2022/02/15 10:23:21;;;;;;;20.65;3.80;;;;;;;7.75;100.00;99681.59;5008678;28;20030;-84
2022/02/15 10:25:47;;;;;;;19.00;3.22;;;;;;;7.92;100.00;99694.59;5016955;28;20034;-84
2022/02/15 10:28:17;;;;;;;23.25;3.70;;;;;;;7.92;100.00;99686.56;4983947;28;20467;-84
2022/02/15 10:30:49;;;;;;;30.88;4.45;;;;;;;8.16;100.00;99698.00;4964906;28;20100;-84
2022/02/15 10:33:16;;;;;;;33.20;4.88;;;;;;;8.22;100.00;99694.59;4986157;28;20037;-85
2022/02/15 10:36:00;;;;;;;29.33;4.80;;;;;;;8.38;100.00;99696.22;4985427;28;20042;-85
2022/02/15 10:38:32;;;;;;;32.85;4.47;;;;;;;8.36;100.00;99675.00;4999062;28;20070;-84
2022/02/15 10:41:03;;;;;;;28.30;4.25;;;;;;;8.40;100.00;99693.41;5002803;28;20026;-86
2022/02/15 10:43:39;;;;;;;24.10;4.18;;;;;;;8.62;100.00;99723.75;4995183;28;20053;-88
2022/02/15 10:46:12;;;;;;;24.00;4.22;;;;;;;8.68;100.00;99721.16;4998127;28;20112;-90
2022/02/15 10:48:38;;;;;;;24.02;3.95;;;;;;;8.67;100.00;99719.47;4974987;28;20389;-88
2022/02/15 10:51:04;;;;;;;23.45;4.43;;;;;;;8.80;100.00;99730.34;4958454;28;20072;-83
2022/02/15 10:53:30;;;;;;;27.23;5.00;;;;;;;8.91;100.00;99736.22;4955661;28;20573;-88
2022/02/15 10:55:57;;;;;;;18.45;3.20;;;;;;;9.06;100.00;99723.59;4976918;28;20033;-86
2022/02/15 10:58:24;;;;;;;43.70;5.80;;;;;;;9.26;100.00;99731.81;4972676;28;20464;-86
2022/02/15 11:00:51;;;;;;;27.63;5.10;;;;;;;9.41;100.00;99742.50;4997114;28;20041;-87
2022/02/15 11:03:21;;;;;;;23.98;3.25;;;;;;;9.45;100.00;99728.50;4975329;28;20041;-85
2022/02/15 11:05:48;;;;;;;30.67;4.50;;;;;;;9.53;100.00;99724.84;4999214;28;20510;-87
2022/02/15 11:08:15;;;;;;;31.77;5.25;;;;;;;9.47;100.00;99720.25;4983179;28;20125;-87
2022/02/15 11:10:45;;;;;;;19.75;4.28;;;;;;;9.57;100.00;99728.78;4976437;28;20033;-87
2022/02/15 11:13:11;;;;;;;15.15;4.18;;;;;;;9.66;100.00;99734.88;5012238;28;20116;-88
2022/02/15 11:15:40;;;;;;;16.45;3.47;;;;;;;9.72;100.00;99738.63;4961652;28;20132;-85
2022/02/15 11:18:10;;;;;;;26.55;4.47;;;;;;;9.75;100.00;99738.22;4977291;28;20045;-84
2022/02/15 11:20:53;;;;;;;30.55;5.03;;;;;;;9.79;100.00;99729.59;4992477;28;20129;-88
2022/02/15 11:23:23;;;;;;;17.80;3.63;;;;;;;9.80;100.00;99746.53;4989187;28;20053;-90
2022/02/15 11:26:12;;;;;;;21.52;4.28;;;;;;;9.78;100.00;99749.38;4964850;28;20030;-88
2022/02/15 11:28:48;;;;;;;16.52;3.97;;;;;;;9.78;100.00;99743.19;5011217;28;20069;-87
2022/02/15 11:31:32;;;;;;;18.55;3.42;;;;;;;9.68;100.00;99736.31;4987055;28;20030;-87
2022/02/15 11:34:04;;;;;;;22.70;3.50;;;;;;;9.68;100.00;99747.06;4995932;28;20029;-88
2022/02/15 11:36:30;;;;;;;20.38;3.42;;;;;;;9.57;100.00;99725.28;4979709;28;20388;-89